sensor_id;sensor_type;location;lat;lon;timestamp;P1;durP1;ratioP1;P2;durP2;ratioP2
71435;SDS011;59251;51.326;12.370;2022-11-15T00:00:27;20.67;;;9.87;;
71435;SDS011;59251;51.326;12.370;2022-11-15T00:02:53;21.02;;;9.35;;
71435;SDS011;59251;51.326;12.370;2022-11-15T00:05:18;20.45;;;9.25;;
71435;SDS011;59251;51.326;12.370;2022-11-15T00:07:44;22.20;;;9.52;;
71435;SDS011;59251;51.326;12.370;2022-11-15T00:10:09;20.00;;;9.37;;
71435;SDS011;59251;51.326;12.370;2022-11-15T00:12:35;20.23;;;9.30;;
71435;SDS011;59251;51.326;12.370;2022-11-15T00:15:00;19.00;;;8.95;;
71435;SDS011;59251;51.326;12.370;2022-11-15T00:17:25;21.05;;;9.52;;
71435;SDS011;59251;51.326;12.370;2022-11-15T00:19:51;18.93;;;8.83;;
71435;SDS011;59251;51.326;12.370;2022-11-15T00:22:16;19.50;;;8.53;;
71435;SDS011;59251;51.326;12.370;2022-11-15T00:24:42;21.53;;;9.20;;
71435;SDS011;59251;51.326;12.370;2022-11-15T00:27:07;18.15;;;8.60;;
71435;SDS011;59251;51.326;12.370;2022-11-15T00:29:33;19.07;;;9.10;;
71435;SDS011;59251;51.326;12.370;2022-11-15T00:31:58;20.70;;;7.97;;
71435;SDS011;59251;51.326;12.370;2022-11-15T00:34:24;18.57;;;8.57;;
71435;SDS011;59251;51.326;12.370;2022-11-15T00:36:49;18.67;;;8.15;;
71435;SDS011;59251;51.326;12.370;2022-11-15T00:39:14;18.20;;;7.80;;
71435;SDS011;59251;51.326;12.370;2022-11-15T00:41:40;17.77;;;8.23;;
71435;SDS011;59251;51.326;12.370;2022-11-15T00:44:05;19.00;;;8.00;;
71435;SDS011;59251;51.326;12.370;2022-11-15T00:46:31;18.17;;;8.43;;
71435;SDS011;59251;51.326;12.370;2022-11-15T00:48:56;18.90;;;8.95;;
71435;SDS011;59251;51.326;12.370;2022-11-15T00:51:21;19.70;;;8.25;;
71435;SDS011;59251;51.326;12.370;2022-11-15T00:53:47;19.17;;;8.10;;
71435;SDS011;59251;51.326;12.370;2022-11-15T00:56:12;17.50;;;7.57;;
71435;SDS011;59251;51.326;12.370;2022-11-15T00:58:38;20.93;;;8.60;;
71435;SDS011;59251;51.326;12.370;2022-11-15T01:01:07;21.17;;;9.60;;
71435;SDS011;59251;51.326;12.370;2022-11-15T01:03:34;18.77;;;8.70;;
71435;SDS011;59251;51.326;12.370;2022-11-15T01:06:00;17.52;;;7.68;;
71435;SDS011;59251;51.326;12.370;2022-11-15T01:08:25;16.67;;;7.03;;
71435;SDS011;59251;51.326;12.370;2022-11-15T01:10:51;18.00;;;8.00;;
71435;SDS011;59251;51.326;12.370;2022-11-15T01:13:16;16.75;;;7.28;;
71435;SDS011;59251;51.326;12.370;2022-11-15T01:15:42;18.23;;;8.47;;
71435;SDS011;59251;51.326;12.370;2022-11-15T01:18:07;16.50;;;7.70;;
71435;SDS011;59251;51.326;12.370;2022-11-15T01:20:33;19.10;;;8.05;;
71435;SDS011;59251;51.326;12.370;2022-11-15T01:22:58;17.23;;;7.47;;
71435;SDS011;59251;51.326;12.370;2022-11-15T01:25:24;16.90;;;7.67;;
71435;SDS011;59251;51.326;12.370;2022-11-15T01:27:49;17.90;;;7.77;;
71435;SDS011;59251;51.326;12.370;2022-11-15T01:30:15;17.10;;;7.70;;
71435;SDS011;59251;51.326;12.370;2022-11-15T01:32:40;17.57;;;7.87;;
71435;SDS011;59251;51.326;12.370;2022-11-15T01:35:06;19.50;;;8.07;;
71435;SDS011;59251;51.326;12.370;2022-11-15T01:37:31;20.35;;;8.18;;
71435;SDS011;59251;51.326;12.370;2022-11-15T01:39:57;16.43;;;7.03;;
71435;SDS011;59251;51.326;12.370;2022-11-15T01:42:22;15.67;;;7.37;;
71435;SDS011;59251;51.326;12.370;2022-11-15T01:44:51;16.40;;;7.43;;
71435;SDS011;59251;51.326;12.370;2022-11-15T01:49:49;17.45;;;7.63;;
71435;SDS011;59251;51.326;12.370;2022-11-15T01:52:22;17.70;;;7.55;;
71435;SDS011;59251;51.326;12.370;2022-11-15T01:54:50;18.47;;;7.53;;
71435;SDS011;59251;51.326;12.370;2022-11-15T01:57:21;16.60;;;7.78;;
71435;SDS011;59251;51.326;12.370;2022-11-15T01:59:47;17.58;;;8.13;;
71435;SDS011;59251;51.326;12.370;2022-11-15T02:02:12;17.10;;;7.37;;
71435;SDS011;59251;51.326;12.370;2022-11-15T02:04:43;16.92;;;8.02;;
71435;SDS011;59251;51.326;12.370;2022-11-15T02:07:11;17.00;;;7.45;;
71435;SDS011;59251;51.326;12.370;2022-11-15T02:09:40;17.85;;;7.43;;
71435;SDS011;59251;51.326;12.370;2022-11-15T02:12:05;17.90;;;8.27;;
71435;SDS011;59251;51.326;12.370;2022-11-15T02:14:33;16.48;;;7.43;;
71435;SDS011;59251;51.326;12.370;2022-11-15T02:23:21;19.30;;;8.57;;
71435;SDS011;59251;51.326;12.370;2022-11-15T02:31:40;14.95;;;7.10;;
71435;SDS011;59251;51.326;12.370;2022-11-15T02:34:25;16.13;;;7.00;;
71435;SDS011;59251;51.326;12.370;2022-11-15T02:40:15;18.23;;;7.85;;
71435;SDS011;59251;51.326;12.370;2022-11-15T02:43:09;16.00;;;7.18;;
71435;SDS011;59251;51.326;12.370;2022-11-15T02:45:57;16.42;;;7.40;;
71435;SDS011;59251;51.326;12.370;2022-11-15T02:48:28;17.30;;;7.40;;
71435;SDS011;59251;51.326;12.370;2022-11-15T02:50:56;15.30;;;7.03;;
71435;SDS011;59251;51.326;12.370;2022-11-15T02:53:24;16.08;;;6.95;;
71435;SDS011;59251;51.326;12.370;2022-11-15T02:55:50;15.35;;;6.47;;
71435;SDS011;59251;51.326;12.370;2022-11-15T03:03:57;15.32;;;6.10;;
71435;SDS011;59251;51.326;12.370;2022-11-15T03:06:50;15.70;;;7.05;;
71435;SDS011;59251;51.326;12.370;2022-11-15T03:12:04;16.70;;;6.90;;
71435;SDS011;59251;51.326;12.370;2022-11-15T03:14:51;14.73;;;6.30;;
71435;SDS011;59251;51.326;12.370;2022-11-15T03:17:35;14.63;;;7.18;;
71435;SDS011;59251;51.326;12.370;2022-11-15T03:20:08;15.45;;;6.60;;
71435;SDS011;59251;51.326;12.370;2022-11-15T03:22:37;15.52;;;7.15;;
71435;SDS011;59251;51.326;12.370;2022-11-15T03:25:08;15.50;;;6.82;;
71435;SDS011;59251;51.326;12.370;2022-11-15T03:27:38;14.93;;;6.60;;
71435;SDS011;59251;51.326;12.370;2022-11-15T03:30:08;13.73;;;6.13;;
71435;SDS011;59251;51.326;12.370;2022-11-15T03:32:35;18.80;;;6.30;;
71435;SDS011;59251;51.326;12.370;2022-11-15T03:35:06;15.38;;;7.18;;
71435;SDS011;59251;51.326;12.370;2022-11-15T03:37:39;14.75;;;6.35;;
71435;SDS011;59251;51.326;12.370;2022-11-15T03:40:09;16.70;;;7.30;;
71435;SDS011;59251;51.326;12.370;2022-11-15T03:42:46;17.38;;;7.28;;
71435;SDS011;59251;51.326;12.370;2022-11-15T03:45:19;14.90;;;6.18;;
71435;SDS011;59251;51.326;12.370;2022-11-15T03:48:01;17.73;;;7.03;;
71435;SDS011;59251;51.326;12.370;2022-11-15T03:50:29;15.87;;;6.57;;
71435;SDS011;59251;51.326;12.370;2022-11-15T03:52:55;14.80;;;6.25;;
71435;SDS011;59251;51.326;12.370;2022-11-15T03:55:21;14.50;;;6.13;;
71435;SDS011;59251;51.326;12.370;2022-11-15T03:57:48;16.07;;;6.50;;
71435;SDS011;59251;51.326;12.370;2022-11-15T04:00:15;12.82;;;5.45;;
71435;SDS011;59251;51.326;12.370;2022-11-15T04:02:41;14.65;;;6.00;;
71435;SDS011;59251;51.326;12.370;2022-11-15T04:05:06;15.43;;;6.43;;
71435;SDS011;59251;51.326;12.370;2022-11-15T04:07:32;13.32;;;5.90;;
71435;SDS011;59251;51.326;12.370;2022-11-15T04:09:57;13.40;;;6.17;;
71435;SDS011;59251;51.326;12.370;2022-11-15T04:12:32;14.65;;;6.15;;
71435;SDS011;59251;51.326;12.370;2022-11-15T04:17:32;13.67;;;5.90;;
71435;SDS011;59251;51.326;12.370;2022-11-15T04:19:57;13.95;;;5.60;;
71435;SDS011;59251;51.326;12.370;2022-11-15T04:22:41;14.88;;;6.28;;
71435;SDS011;59251;51.326;12.370;2022-11-15T04:25:25;14.80;;;6.60;;
71435;SDS011;59251;51.326;12.370;2022-11-15T04:27:50;14.15;;;6.10;;
71435;SDS011;59251;51.326;12.370;2022-11-15T04:30:16;14.07;;;6.20;;
71435;SDS011;59251;51.326;12.370;2022-11-15T04:32:41;14.23;;;6.00;;
71435;SDS011;59251;51.326;12.370;2022-11-15T04:35:07;14.40;;;6.27;;
71435;SDS011;59251;51.326;12.370;2022-11-15T04:37:32;13.35;;;5.85;;
71435;SDS011;59251;51.326;12.370;2022-11-15T04:39:58;14.43;;;5.83;;
71435;SDS011;59251;51.326;12.370;2022-11-15T04:42:23;13.90;;;6.30;;
71435;SDS011;59251;51.326;12.370;2022-11-15T04:44:49;14.30;;;6.67;;
71435;SDS011;59251;51.326;12.370;2022-11-15T04:47:14;14.75;;;6.47;;
71435;SDS011;59251;51.326;12.370;2022-11-15T04:49:39;14.40;;;5.83;;
71435;SDS011;59251;51.326;12.370;2022-11-15T04:52:05;13.90;;;6.00;;
71435;SDS011;59251;51.326;12.370;2022-11-15T04:54:30;15.97;;;6.53;;
71435;SDS011;59251;51.326;12.370;2022-11-15T04:56:56;14.38;;;5.88;;
71435;SDS011;59251;51.326;12.370;2022-11-15T04:59:21;15.10;;;6.18;;
71435;SDS011;59251;51.326;12.370;2022-11-15T05:01:46;15.60;;;6.50;;
71435;SDS011;59251;51.326;12.370;2022-11-15T05:04:12;13.40;;;5.70;;
71435;SDS011;59251;51.326;12.370;2022-11-15T05:06:47;12.77;;;6.00;;
71435;SDS011;59251;51.326;12.370;2022-11-15T05:09:13;17.47;;;6.13;;
71435;SDS011;59251;51.326;12.370;2022-11-15T05:11:39;15.70;;;6.78;;
71435;SDS011;59251;51.326;12.370;2022-11-15T05:14:05;15.17;;;6.27;;
71435;SDS011;59251;51.326;12.370;2022-11-15T05:16:30;14.68;;;6.38;;
71435;SDS011;59251;51.326;12.370;2022-11-15T05:18:55;15.63;;;6.23;;
71435;SDS011;59251;51.326;12.370;2022-11-15T05:21:21;14.83;;;5.90;;
71435;SDS011;59251;51.326;12.370;2022-11-15T05:23:47;14.70;;;6.60;;
71435;SDS011;59251;51.326;12.370;2022-11-15T05:26:12;13.27;;;6.30;;
71435;SDS011;59251;51.326;12.370;2022-11-15T05:28:39;14.65;;;6.47;;
71435;SDS011;59251;51.326;12.370;2022-11-15T05:31:09;17.27;;;7.13;;
71435;SDS011;59251;51.326;12.370;2022-11-15T05:33:36;14.95;;;6.80;;
71435;SDS011;59251;51.326;12.370;2022-11-15T05:38:31;14.02;;;6.32;;
71435;SDS011;59251;51.326;12.370;2022-11-15T05:40:58;16.08;;;6.20;;
71435;SDS011;59251;51.326;12.370;2022-11-15T05:43:25;13.65;;;6.60;;
71435;SDS011;59251;51.326;12.370;2022-11-15T05:45:50;16.90;;;7.23;;
71435;SDS011;59251;51.326;12.370;2022-11-15T05:48:16;15.50;;;6.68;;
71435;SDS011;59251;51.326;12.370;2022-11-15T05:50:42;16.73;;;6.70;;
71435;SDS011;59251;51.326;12.370;2022-11-15T05:53:10;15.80;;;6.88;;
71435;SDS011;59251;51.326;12.370;2022-11-15T05:55:38;19.25;;;8.45;;
71435;SDS011;59251;51.326;12.370;2022-11-15T05:58:04;16.13;;;7.30;;
71435;SDS011;59251;51.326;12.370;2022-11-15T06:00:30;17.17;;;7.70;;
71435;SDS011;59251;51.326;12.370;2022-11-15T06:02:55;15.80;;;6.60;;
71435;SDS011;59251;51.326;12.370;2022-11-15T06:05:21;15.80;;;6.73;;
71435;SDS011;59251;51.326;12.370;2022-11-15T06:07:46;15.43;;;6.97;;
71435;SDS011;59251;51.326;12.370;2022-11-15T06:10:11;13.40;;;6.35;;
71435;SDS011;59251;51.326;12.370;2022-11-15T06:12:37;13.95;;;6.47;;
71435;SDS011;59251;51.326;12.370;2022-11-15T06:15:02;14.90;;;7.20;;
71435;SDS011;59251;51.326;12.370;2022-11-15T06:17:28;15.07;;;6.60;;
71435;SDS011;59251;51.326;12.370;2022-11-15T06:19:54;13.85;;;5.95;;
71435;SDS011;59251;51.326;12.370;2022-11-15T06:22:19;15.87;;;6.60;;
71435;SDS011;59251;51.326;12.370;2022-11-15T06:24:44;15.40;;;6.40;;
71435;SDS011;59251;51.326;12.370;2022-11-15T06:27:10;14.00;;;6.10;;
71435;SDS011;59251;51.326;12.370;2022-11-15T06:29:36;15.20;;;6.15;;
71435;SDS011;59251;51.326;12.370;2022-11-15T06:32:02;16.23;;;6.47;;
71435;SDS011;59251;51.326;12.370;2022-11-15T06:34:27;16.30;;;6.97;;
71435;SDS011;59251;51.326;12.370;2022-11-15T06:36:53;17.00;;;7.43;;
71435;SDS011;59251;51.326;12.370;2022-11-15T06:39:18;17.07;;;7.07;;
71435;SDS011;59251;51.326;12.370;2022-11-15T06:41:43;14.47;;;6.20;;
71435;SDS011;59251;51.326;12.370;2022-11-15T06:44:09;16.65;;;6.70;;
71435;SDS011;59251;51.326;12.370;2022-11-15T06:46:34;15.27;;;6.67;;
71435;SDS011;59251;51.326;12.370;2022-11-15T06:49:00;17.87;;;7.60;;
71435;SDS011;59251;51.326;12.370;2022-11-15T06:51:25;16.33;;;7.37;;
71435;SDS011;59251;51.326;12.370;2022-11-15T06:53:51;17.23;;;7.00;;
71435;SDS011;59251;51.326;12.370;2022-11-15T06:56:16;16.55;;;7.35;;
71435;SDS011;59251;51.326;12.370;2022-11-15T06:58:41;17.07;;;7.20;;
71435;SDS011;59251;51.326;12.370;2022-11-15T07:01:08;18.53;;;7.07;;
71435;SDS011;59251;51.326;12.370;2022-11-15T07:03:38;14.05;;;6.53;;
71435;SDS011;59251;51.326;12.370;2022-11-15T07:06:04;15.67;;;6.97;;
71435;SDS011;59251;51.326;12.370;2022-11-15T07:08:30;14.52;;;6.85;;
71435;SDS011;59251;51.326;12.370;2022-11-15T07:10:59;15.43;;;6.25;;
71435;SDS011;59251;51.326;12.370;2022-11-15T07:13:27;13.50;;;6.22;;
71435;SDS011;59251;51.326;12.370;2022-11-15T07:15:53;15.02;;;6.60;;
71435;SDS011;59251;51.326;12.370;2022-11-15T07:18:19;15.53;;;6.77;;
71435;SDS011;59251;51.326;12.370;2022-11-15T07:20:45;15.00;;;7.00;;
71435;SDS011;59251;51.326;12.370;2022-11-15T07:23:10;16.77;;;6.97;;
71435;SDS011;59251;51.326;12.370;2022-11-15T07:25:35;14.20;;;6.43;;
71435;SDS011;59251;51.326;12.370;2022-11-15T07:28:01;17.80;;;7.07;;
71435;SDS011;59251;51.326;12.370;2022-11-15T07:30:27;13.17;;;6.10;;
71435;SDS011;59251;51.326;12.370;2022-11-15T07:33:02;19.30;;;6.72;;
71435;SDS011;59251;51.326;12.370;2022-11-15T07:35:28;13.23;;;6.32;;
71435;SDS011;59251;51.326;12.370;2022-11-15T07:37:58;15.73;;;6.63;;
71435;SDS011;59251;51.326;12.370;2022-11-15T07:40:25;13.70;;;5.77;;
71435;SDS011;59251;51.326;12.370;2022-11-15T07:42:54;15.05;;;5.97;;
71435;SDS011;59251;51.326;12.370;2022-11-15T07:45:24;11.85;;;5.75;;
71435;SDS011;59251;51.326;12.370;2022-11-15T07:47:53;15.00;;;6.15;;
71435;SDS011;59251;51.326;12.370;2022-11-15T07:50:20;13.35;;;6.22;;
71435;SDS011;59251;51.326;12.370;2022-11-15T07:52:47;13.23;;;6.23;;
71435;SDS011;59251;51.326;12.370;2022-11-15T07:55:12;14.88;;;6.18;;
71435;SDS011;59251;51.326;12.370;2022-11-15T07:57:38;13.87;;;6.20;;
71435;SDS011;59251;51.326;12.370;2022-11-15T08:00:04;13.83;;;6.27;;
71435;SDS011;59251;51.326;12.370;2022-11-15T08:02:30;16.83;;;6.55;;
71435;SDS011;59251;51.326;12.370;2022-11-15T08:04:56;14.77;;;5.50;;
71435;SDS011;59251;51.326;12.370;2022-11-15T08:07:22;17.13;;;5.50;;
71435;SDS011;59251;51.326;12.370;2022-11-15T08:09:47;13.50;;;5.80;;
71435;SDS011;59251;51.326;12.370;2022-11-15T08:12:13;15.50;;;6.10;;
71435;SDS011;59251;51.326;12.370;2022-11-15T08:14:39;15.00;;;6.20;;
71435;SDS011;59251;51.326;12.370;2022-11-15T08:17:04;14.97;;;6.03;;
71435;SDS011;59251;51.326;12.370;2022-11-15T08:19:29;12.85;;;5.88;;
71435;SDS011;59251;51.326;12.370;2022-11-15T08:21:55;13.00;;;5.47;;
71435;SDS011;59251;51.326;12.370;2022-11-15T08:24:20;12.63;;;5.90;;
71435;SDS011;59251;51.326;12.370;2022-11-15T08:26:46;13.07;;;5.60;;
71435;SDS011;59251;51.326;12.370;2022-11-15T08:29:12;13.80;;;5.57;;
71435;SDS011;59251;51.326;12.370;2022-11-15T08:31:37;13.60;;;5.23;;
71435;SDS011;59251;51.326;12.370;2022-11-15T08:34:03;12.05;;;5.40;;
71435;SDS011;59251;51.326;12.370;2022-11-15T08:36:29;14.10;;;5.72;;
71435;SDS011;59251;51.326;12.370;2022-11-15T08:38:55;13.73;;;6.45;;
71435;SDS011;59251;51.326;12.370;2022-11-15T08:41:25;13.33;;;5.20;;
71435;SDS011;59251;51.326;12.370;2022-11-15T08:43:55;11.95;;;5.13;;
71435;SDS011;59251;51.326;12.370;2022-11-15T08:46:20;10.10;;;5.23;;
71435;SDS011;59251;51.326;12.370;2022-11-15T08:48:45;13.13;;;5.33;;
71435;SDS011;59251;51.326;12.370;2022-11-15T08:51:11;12.90;;;5.50;;
71435;SDS011;59251;51.326;12.370;2022-11-15T08:53:36;14.77;;;6.10;;
71435;SDS011;59251;51.326;12.370;2022-11-15T08:56:02;13.03;;;5.50;;
71435;SDS011;59251;51.326;12.370;2022-11-15T08:58:31;11.05;;;4.85;;
71435;SDS011;59251;51.326;12.370;2022-11-15T09:00:57;10.10;;;5.00;;
71435;SDS011;59251;51.326;12.370;2022-11-15T09:03:22;12.23;;;4.80;;
71435;SDS011;59251;51.326;12.370;2022-11-15T09:05:48;11.73;;;5.03;;
71435;SDS011;59251;51.326;12.370;2022-11-15T09:08:13;12.37;;;5.40;;
71435;SDS011;59251;51.326;12.370;2022-11-15T09:10:39;11.07;;;4.40;;
71435;SDS011;59251;51.326;12.370;2022-11-15T09:13:04;11.77;;;5.10;;
71435;SDS011;59251;51.326;12.370;2022-11-15T09:15:30;11.93;;;4.95;;
71435;SDS011;59251;51.326;12.370;2022-11-15T09:17:57;10.57;;;4.53;;
71435;SDS011;59251;51.326;12.370;2022-11-15T09:20:24;10.50;;;4.38;;
71435;SDS011;59251;51.326;12.370;2022-11-15T09:22:49;10.10;;;4.40;;
71435;SDS011;59251;51.326;12.370;2022-11-15T09:25:15;11.27;;;4.13;;
71435;SDS011;59251;51.326;12.370;2022-11-15T09:27:40;11.50;;;4.17;;
71435;SDS011;59251;51.326;12.370;2022-11-15T09:30:06;10.70;;;4.30;;
71435;SDS011;59251;51.326;12.370;2022-11-15T09:32:32;10.43;;;4.60;;
71435;SDS011;59251;51.326;12.370;2022-11-15T09:34:57;11.43;;;4.30;;
71435;SDS011;59251;51.326;12.370;2022-11-15T09:37:23;9.77;;;4.20;;
71435;SDS011;59251;51.326;12.370;2022-11-15T09:39:48;16.40;;;6.93;;
71435;SDS011;59251;51.326;12.370;2022-11-15T09:42:33;10.37;;;4.43;;
71435;SDS011;59251;51.326;12.370;2022-11-15T09:45:31;13.43;;;5.10;;
71435;SDS011;59251;51.326;12.370;2022-11-15T09:51:12;9.60;;;4.20;;
71435;SDS011;59251;51.326;12.370;2022-11-15T09:53:51;8.25;;;3.72;;
71435;SDS011;59251;51.326;12.370;2022-11-15T09:56:40;11.70;;;4.35;;
71435;SDS011;59251;51.326;12.370;2022-11-15T10:05:20;21.27;;;7.75;;
71435;SDS011;59251;51.326;12.370;2022-11-15T10:10:58;10.93;;;3.95;;
71435;SDS011;59251;51.326;12.370;2022-11-15T10:13:26;11.55;;;4.10;;
71435;SDS011;59251;51.326;12.370;2022-11-15T10:15:58;11.98;;;4.35;;
71435;SDS011;59251;51.326;12.370;2022-11-15T10:21:23;11.10;;;4.03;;
71435;SDS011;59251;51.326;12.370;2022-11-15T10:23:57;11.00;;;3.83;;
71435;SDS011;59251;51.326;12.370;2022-11-15T10:26:23;11.10;;;3.42;;
71435;SDS011;59251;51.326;12.370;2022-11-15T10:28:49;10.40;;;3.50;;
71435;SDS011;59251;51.326;12.370;2022-11-15T10:31:23;9.90;;;4.13;;
71435;SDS011;59251;51.326;12.370;2022-11-15T10:33:50;12.63;;;4.40;;
71435;SDS011;59251;51.326;12.370;2022-11-15T10:36:17;9.55;;;3.88;;
71435;SDS011;59251;51.326;12.370;2022-11-15T10:41:14;10.85;;;4.00;;
71435;SDS011;59251;51.326;12.370;2022-11-15T10:43:45;8.25;;;3.70;;
71435;SDS011;59251;51.326;12.370;2022-11-15T10:46:32;9.20;;;3.40;;
71435;SDS011;59251;51.326;12.370;2022-11-15T10:49:12;9.40;;;3.35;;
71435;SDS011;59251;51.326;12.370;2022-11-15T10:51:41;10.82;;;3.70;;
71435;SDS011;59251;51.326;12.370;2022-11-15T10:54:10;9.80;;;3.35;;
71435;SDS011;59251;51.326;12.370;2022-11-15T10:56:38;8.30;;;3.45;;
71435;SDS011;59251;51.326;12.370;2022-11-15T10:59:09;9.35;;;3.25;;
71435;SDS011;59251;51.326;12.370;2022-11-15T11:01:47;9.30;;;3.85;;
71435;SDS011;59251;51.326;12.370;2022-11-15T11:04:13;8.80;;;3.05;;
71435;SDS011;59251;51.326;12.370;2022-11-15T11:06:58;8.30;;;3.45;;
71435;SDS011;59251;51.326;12.370;2022-11-15T11:12:04;9.63;;;3.55;;
71435;SDS011;59251;51.326;12.370;2022-11-15T11:14:31;8.35;;;3.50;;
71435;SDS011;59251;51.326;12.370;2022-11-15T11:22:35;12.68;;;3.38;;
71435;SDS011;59251;51.326;12.370;2022-11-15T11:25:34;9.75;;;3.60;;
71435;SDS011;59251;51.326;12.370;2022-11-15T11:33:19;10.33;;;3.07;;
71435;SDS011;59251;51.326;12.370;2022-11-15T11:41:43;8.23;;;2.90;;
71435;SDS011;59251;51.326;12.370;2022-11-15T11:49:12;7.30;;;3.00;;
71435;SDS011;59251;51.326;12.370;2022-11-15T11:51:45;9.10;;;3.30;;
71435;SDS011;59251;51.326;12.370;2022-11-15T11:54:19;7.88;;;2.90;;
71435;SDS011;59251;51.326;12.370;2022-11-15T11:56:58;7.38;;;2.58;;
71435;SDS011;59251;51.326;12.370;2022-11-15T11:59:37;7.53;;;3.00;;
71435;SDS011;59251;51.326;12.370;2022-11-15T12:04:53;8.05;;;2.78;;
71435;SDS011;59251;51.326;12.370;2022-11-15T12:07:31;8.50;;;3.38;;
71435;SDS011;59251;51.326;12.370;2022-11-15T12:09:59;9.45;;;3.22;;
71435;SDS011;59251;51.326;12.370;2022-11-15T12:12:39;7.35;;;2.85;;
71435;SDS011;59251;51.326;12.370;2022-11-15T12:15:18;6.78;;;2.65;;
71435;SDS011;59251;51.326;12.370;2022-11-15T12:17:48;12.52;;;5.00;;
71435;SDS011;59251;51.326;12.370;2022-11-15T12:20:22;7.97;;;3.20;;
71435;SDS011;59251;51.326;12.370;2022-11-15T12:25:29;8.40;;;3.42;;
71435;SDS011;59251;51.326;12.370;2022-11-15T12:30:51;8.70;;;3.00;;
71435;SDS011;59251;51.326;12.370;2022-11-15T12:33:40;7.57;;;2.73;;
71435;SDS011;59251;51.326;12.370;2022-11-15T12:41:19;7.53;;;3.08;;
71435;SDS011;59251;51.326;12.370;2022-11-15T12:43:46;8.32;;;3.10;;
71435;SDS011;59251;51.326;12.370;2022-11-15T12:46:19;7.03;;;2.60;;
71435;SDS011;59251;51.326;12.370;2022-11-15T12:48:48;11.15;;;2.60;;
71435;SDS011;59251;51.326;12.370;2022-11-15T12:51:16;11.05;;;3.00;;
71435;SDS011;59251;51.326;12.370;2022-11-15T12:53:42;6.88;;;2.85;;
71435;SDS011;59251;51.326;12.370;2022-11-15T12:58:57;10.18;;;3.20;;
71435;SDS011;59251;51.326;12.370;2022-11-15T13:06:50;9.63;;;3.30;;
71435;SDS011;59251;51.326;12.370;2022-11-15T13:11:53;8.13;;;3.70;;
71435;SDS011;59251;51.326;12.370;2022-11-15T13:30:36;9.77;;;3.03;;
71435;SDS011;59251;51.326;12.370;2022-11-15T13:33:13;9.38;;;3.03;;
71435;SDS011;59251;51.326;12.370;2022-11-15T13:35:41;8.10;;;2.55;;
71435;SDS011;59251;51.326;12.370;2022-11-15T13:38:11;8.00;;;2.60;;
71435;SDS011;59251;51.326;12.370;2022-11-15T13:40:52;8.65;;;2.55;;
71435;SDS011;59251;51.326;12.370;2022-11-15T13:46:06;7.30;;;2.50;;
71435;SDS011;59251;51.326;12.370;2022-11-15T13:51:42;10.65;;;2.38;;
71435;SDS011;59251;51.326;12.370;2022-11-15T13:54:25;8.20;;;2.33;;
71435;SDS011;59251;51.326;12.370;2022-11-15T13:57:00;9.50;;;2.40;;
71435;SDS011;59251;51.326;12.370;2022-11-15T14:02:18;6.97;;;2.75;;
71435;SDS011;59251;51.326;12.370;2022-11-15T14:05:11;10.25;;;2.75;;
71435;SDS011;59251;51.326;12.370;2022-11-15T14:07:56;9.88;;;2.90;;
71435;SDS011;59251;51.326;12.370;2022-11-15T14:10:34;8.73;;;2.67;;
71435;SDS011;59251;51.326;12.370;2022-11-15T14:13:01;9.83;;;2.97;;
71435;SDS011;59251;51.326;12.370;2022-11-15T14:15:30;7.50;;;2.63;;
71435;SDS011;59251;51.326;12.370;2022-11-15T14:17:57;8.88;;;2.60;;
71435;SDS011;59251;51.326;12.370;2022-11-15T14:22:54;8.77;;;3.08;;
71435;SDS011;59251;51.326;12.370;2022-11-15T14:25:51;10.98;;;3.25;;
71435;SDS011;59251;51.326;12.370;2022-11-15T14:30:48;12.10;;;3.10;;
71435;SDS011;59251;51.326;12.370;2022-11-15T14:33:20;10.13;;;3.20;;
71435;SDS011;59251;51.326;12.370;2022-11-15T14:35:49;9.80;;;3.10;;
71435;SDS011;59251;51.326;12.370;2022-11-15T14:38:16;8.27;;;3.00;;
71435;SDS011;59251;51.326;12.370;2022-11-15T14:40:41;8.43;;;2.97;;
71435;SDS011;59251;51.326;12.370;2022-11-15T14:43:11;9.75;;;3.17;;
71435;SDS011;59251;51.326;12.370;2022-11-15T14:45:37;11.00;;;2.95;;
71435;SDS011;59251;51.326;12.370;2022-11-15T14:48:03;8.80;;;3.50;;
71435;SDS011;59251;51.326;12.370;2022-11-15T14:50:28;10.90;;;3.00;;
71435;SDS011;59251;51.326;12.370;2022-11-15T14:52:54;11.80;;;3.47;;
71435;SDS011;59251;51.326;12.370;2022-11-15T14:55:23;13.13;;;3.92;;
71435;SDS011;59251;51.326;12.370;2022-11-15T14:57:51;10.23;;;3.53;;
71435;SDS011;59251;51.326;12.370;2022-11-15T15:00:20;11.07;;;3.60;;
71435;SDS011;59251;51.326;12.370;2022-11-15T15:02:46;9.35;;;3.60;;
71435;SDS011;59251;51.326;12.370;2022-11-15T15:05:17;9.93;;;3.90;;
71435;SDS011;59251;51.326;12.370;2022-11-15T15:07:48;10.48;;;3.20;;
71435;SDS011;59251;51.326;12.370;2022-11-15T15:10:15;11.27;;;3.63;;
71435;SDS011;59251;51.326;12.370;2022-11-15T15:12:41;9.50;;;3.50;;
71435;SDS011;59251;51.326;12.370;2022-11-15T15:15:14;8.95;;;3.30;;
71435;SDS011;59251;51.326;12.370;2022-11-15T15:17:49;12.65;;;3.47;;
71435;SDS011;59251;51.326;12.370;2022-11-15T15:20:15;11.20;;;3.75;;
71435;SDS011;59251;51.326;12.370;2022-11-15T15:22:40;12.60;;;3.63;;
71435;SDS011;59251;51.326;12.370;2022-11-15T15:27:45;10.25;;;4.03;;
71435;SDS011;59251;51.326;12.370;2022-11-15T15:30:11;11.53;;;4.50;;
71435;SDS011;59251;51.326;12.370;2022-11-15T15:32:36;15.88;;;4.40;;
71435;SDS011;59251;51.326;12.370;2022-11-15T15:35:02;12.40;;;5.03;;
71435;SDS011;59251;51.326;12.370;2022-11-15T15:37:27;12.50;;;4.33;;
71435;SDS011;59251;51.326;12.370;2022-11-15T15:39:55;13.23;;;4.50;;
71435;SDS011;59251;51.326;12.370;2022-11-15T15:42:21;10.02;;;4.00;;
71435;SDS011;59251;51.326;12.370;2022-11-15T15:44:48;12.40;;;4.07;;
71435;SDS011;59251;51.326;12.370;2022-11-15T15:47:15;13.80;;;5.00;;
71435;SDS011;59251;51.326;12.370;2022-11-15T15:49:43;11.17;;;4.63;;
71435;SDS011;59251;51.326;12.370;2022-11-15T15:52:09;14.02;;;4.57;;
71435;SDS011;59251;51.326;12.370;2022-11-15T15:54:34;10.02;;;4.43;;
71435;SDS011;59251;51.326;12.370;2022-11-15T15:57:00;14.37;;;4.77;;
71435;SDS011;59251;51.326;12.370;2022-11-15T15:59:26;15.27;;;5.13;;
71435;SDS011;59251;51.326;12.370;2022-11-15T16:01:51;12.27;;;4.90;;
71435;SDS011;59251;51.326;12.370;2022-11-15T16:04:19;10.63;;;3.78;;
71435;SDS011;59251;51.326;12.370;2022-11-15T16:06:45;14.23;;;4.28;;
71435;SDS011;59251;51.326;12.370;2022-11-15T16:09:14;10.23;;;3.67;;
71435;SDS011;59251;51.326;12.370;2022-11-15T16:11:40;13.80;;;4.43;;
71435;SDS011;59251;51.326;12.370;2022-11-15T16:14:07;14.20;;;4.60;;
71435;SDS011;59251;51.326;12.370;2022-11-15T16:16:34;12.02;;;4.63;;
71435;SDS011;59251;51.326;12.370;2022-11-15T16:18:59;14.15;;;5.47;;
71435;SDS011;59251;51.326;12.370;2022-11-15T16:21:26;10.38;;;4.03;;
71435;SDS011;59251;51.326;12.370;2022-11-15T16:23:52;13.38;;;4.90;;
71435;SDS011;59251;51.326;12.370;2022-11-15T16:26:19;10.70;;;4.40;;
71435;SDS011;59251;51.326;12.370;2022-11-15T16:28:54;11.45;;;4.10;;
71435;SDS011;59251;51.326;12.370;2022-11-15T16:31:20;10.87;;;4.40;;
71435;SDS011;59251;51.326;12.370;2022-11-15T16:33:48;12.77;;;4.45;;
71435;SDS011;59251;51.326;12.370;2022-11-15T16:36:21;13.73;;;4.43;;
71435;SDS011;59251;51.326;12.370;2022-11-15T16:38:48;12.80;;;4.55;;
71435;SDS011;59251;51.326;12.370;2022-11-15T16:41:14;12.32;;;4.78;;